Sea Voyager — V7QU2 — position and weather

sailwx.info

Track history (hours):
 
Tides and Currents Weather Stations Pressure Air Temp Water Temp Dewpoint Dewpoint Depression Visibility Wind Speed Wind Dir Waves Ship Positions

Sea Voyager

Last reported at 2015-May-16 17:25 UTC. Time now 2015-May-24 19:22 UTC.
Position N 01°15' E 104°04'.
Warning: this ship's position is 8 days out of date.

Length 243 m; draft 8.5 m.

Type: Ship (hazmat cat A). MMSI: 538003439.

Date/timePositionNaut miles runAvg speedWind from/ knotsBaromVisibWave heightAir tempDewpointWater temp
2015-May-16 17:25N 01°15' E 104°04'1314.3
2015-May-16 16:30N 01°11' E 103°51'8 1.4
2015-May-16 10:15N 01°17' E 103°45'2 0.1
2015-May-15 12:25N 01°18' E 103°43'2 2.4
2015-May-15 11:32N 01°16' E 103°45'8 7.9
2015-May-15 10:33N 01°12' E 103°52'4 1.2
2015-May-15 07:20N 01°15' E 103°54'0 0.0
2015-May-15 06:32N 01°15' E 103°54'0 0.0
2015-May-15 05:29N 01°15' E 103°54'0 0.0
2015-May-15 03:20N 01°15' E 103°54'0 0.1
2015-May-15 01:23N 01°15' E 103°54'0 0.1
2015-May-15 00:14N 01°15' E 103°54'0 0.0
2015-May-14 23:20N 01°15' E 103°54'0 0.0
2015-May-14 22:26N 01°15' E 103°54'0 0.0
2015-May-14 21:11N 01°15' E 103°54'0 0.3
2015-May-14 20:33N 01°15' E 103°54'3 3.2
2015-May-14 19:33N 01°16' E 103°57'6 6.1
2015-May-14 18:31N 01°16' E 104°03'9 9.0
2015-May-14 17:33N 01°17' E 104°12'  
Track history (hours):
 
Tides and Currents Weather Stations Pressure Air Temp Water Temp Dewpoint Dewpoint Depression Visibility Wind Speed Wind Dir Waves Ship Positions

Sea Voyager

Last reported at 2015-May-16 17:25 UTC. Time now 2015-May-24 19:22 UTC.
Position N 01°15' E 104°04'.
Warning: this ship's position is 8 days out of date.

Length 243 m; draft 8.5 m.

Type: Ship (hazmat cat A). MMSI: 538003439.

Date/timePositionNaut miles runAvg speedWind from/ knotsBaromVisibWave heightAir tempDewpointWater temp
2015-May-16 17:25N 01°15' E 104°04'1314.3
2015-May-16 16:30N 01°11' E 103°51'8 1.4
2015-May-16 10:15N 01°17' E 103°45'2 0.1
2015-May-15 12:25N 01°18' E 103°43'2 2.4
2015-May-15 11:32N 01°16' E 103°45'8 7.9
2015-May-15 10:33N 01°12' E 103°52'4 1.2
2015-May-15 07:20N 01°15' E 103°54'0 0.0
2015-May-15 06:32N 01°15' E 103°54'0 0.0
2015-May-15 05:29N 01°15' E 103°54'0 0.0
2015-May-15 03:20N 01°15' E 103°54'0 0.1
2015-May-15 01:23N 01°15' E 103°54'0 0.1
2015-May-15 00:14N 01°15' E 103°54'0 0.0
2015-May-14 23:20N 01°15' E 103°54'0 0.0
2015-May-14 22:26N 01°15' E 103°54'0 0.0
2015-May-14 21:11N 01°15' E 103°54'0 0.3
2015-May-14 20:33N 01°15' E 103°54'3 3.2
2015-May-14 19:33N 01°16' E 103°57'6 6.1
2015-May-14 18:31N 01°16' E 104°03'9 9.0
2015-May-14 17:33N 01°17' E 104°12'  

Dump ship's entire track history